sensor_id;sensor_type;location;lat;lon;timestamp;pressure;altitude;pressure_sealevel;temperature;humidity
72110;BME280;59983;52.010;5.420;2023-04-26T00:00:42;101987.56;;;4.14;84.14
72110;BME280;59983;52.010;5.420;2023-04-26T00:03:09;101992.97;;;4.09;84.14
72110;BME280;59983;52.010;5.420;2023-04-26T00:05:36;101986.50;;;4.05;84.66
72110;BME280;59983;52.010;5.420;2023-04-26T00:08:03;101983.03;;;4.05;84.86
72110;BME280;59983;52.010;5.420;2023-04-26T00:10:30;101977.91;;;4.13;84.92
72110;BME280;59983;52.010;5.420;2023-04-26T00:12:56;101980.03;;;4.26;84.61
72110;BME280;59983;52.010;5.420;2023-04-26T00:15:23;101978.38;;;4.36;84.48
72110;BME280;59983;52.010;5.420;2023-04-26T00:17:49;101983.75;;;4.36;84.73
72110;BME280;59983;52.010;5.420;2023-04-26T00:20:17;101974.38;;;4.33;84.36
72110;BME280;59983;52.010;5.420;2023-04-26T00:22:43;101981.63;;;4.28;84.77
72110;BME280;59983;52.010;5.420;2023-04-26T00:25:09;101980.59;;;4.18;84.49
72110;BME280;59983;52.010;5.420;2023-04-26T00:27:36;101981.69;;;4.02;84.09
72110;BME280;59983;52.010;5.420;2023-04-26T00:30:03;101979.84;;;3.92;84.95
72110;BME280;59983;52.010;5.420;2023-04-26T00:32:29;101978.75;;;3.88;84.50
72110;BME280;59983;52.010;5.420;2023-04-26T00:34:57;101988.97;;;3.86;84.24
72110;BME280;59983;52.010;5.420;2023-04-26T00:37:23;101984.44;;;3.77;84.64
72110;BME280;59983;52.010;5.420;2023-04-26T00:39:50;101979.88;;;3.72;84.93
72110;BME280;59983;52.010;5.420;2023-04-26T00:42:16;101979.34;;;3.70;85.09
72110;BME280;59983;52.010;5.420;2023-04-26T00:44:44;101976.13;;;3.73;84.94
72110;BME280;59983;52.010;5.420;2023-04-26T00:47:11;101978.81;;;3.73;84.83
72110;BME280;59983;52.010;5.420;2023-04-26T00:49:37;101978.81;;;3.68;84.93
72110;BME280;59983;52.010;5.420;2023-04-26T00:52:04;101974.00;;;3.65;85.34
72110;BME280;59983;52.010;5.420;2023-04-26T00:54:31;101979.88;;;3.67;85.70
72110;BME280;59983;52.010;5.420;2023-04-26T00:56:58;101968.91;;;3.63;85.89
72110;BME280;59983;52.010;5.420;2023-04-26T00:59:25;101973.19;;;3.59;85.38
72110;BME280;59983;52.010;5.420;2023-04-26T01:01:52;101973.47;;;3.63;85.79
72110;BME280;59983;52.010;5.420;2023-04-26T01:04:19;101975.59;;;3.66;85.85
72110;BME280;59983;52.010;5.420;2023-04-26T01:06:46;101978.81;;;3.63;85.44
72110;BME280;59983;52.010;5.420;2023-04-26T01:09:13;101976.13;;;3.63;86.05
72110;BME280;59983;52.010;5.420;2023-04-26T01:11:42;101982.56;;;3.67;85.43
72110;BME280;59983;52.010;5.420;2023-04-26T01:14:09;101974.25;;;3.68;85.61
72110;BME280;59983;52.010;5.420;2023-04-26T01:16:36;101977.72;;;3.69;85.58
72110;BME280;59983;52.010;5.420;2023-04-26T01:19:10;101974.25;;;3.68;85.48
72110;BME280;59983;52.010;5.420;2023-04-26T01:21:41;101982.56;;;3.67;85.84
72110;BME280;59983;52.010;5.420;2023-04-26T01:24:12;101980.97;;;3.71;85.43
72110;BME280;59983;52.010;5.420;2023-04-26T01:26:39;101979.34;;;3.70;85.50
72110;BME280;59983;52.010;5.420;2023-04-26T01:29:20;101984.97;;;3.68;85.42
72110;BME280;59983;52.010;5.420;2023-04-26T01:31:47;101990.88;;;3.65;85.36
72110;BME280;59983;52.010;5.420;2023-04-26T01:34:14;101987.66;;;3.68;86.15
72110;BME280;59983;52.010;5.420;2023-04-26T01:36:41;101987.94;;;3.67;86.28
72110;BME280;59983;52.010;5.420;2023-04-26T01:39:08;101987.66;;;3.53;85.79
72110;BME280;59983;52.010;5.420;2023-04-26T01:41:34;101986.88;;;3.48;86.19
72110;BME280;59983;52.010;5.420;2023-04-26T01:44:01;101980.72;;;3.37;86.55
72110;BME280;59983;52.010;5.420;2023-04-26T01:46:27;101985.53;;;3.30;86.46
72110;BME280;59983;52.010;5.420;2023-04-26T01:48:54;101978.28;;;3.30;87.10
72110;BME280;59983;52.010;5.420;2023-04-26T01:51:20;101974.81;;;3.30;87.32
72110;BME280;59983;52.010;5.420;2023-04-26T01:53:47;101974.81;;;3.30;87.44
72110;BME280;59983;52.010;5.420;2023-04-26T01:56:14;101974.81;;;3.30;87.30
72110;BME280;59983;52.010;5.420;2023-04-26T01:58:41;101978.56;;;3.19;87.10
72110;BME280;59983;52.010;5.420;2023-04-26T02:01:08;101977.47;;;3.15;87.48
72110;BME280;59983;52.010;5.420;2023-04-26T02:03:35;101981.22;;;3.13;87.26
72110;BME280;59983;52.010;5.420;2023-04-26T02:06:02;101974.53;;;3.11;87.24
72110;BME280;59983;52.010;5.420;2023-04-26T02:08:28;101984.97;;;3.07;87.79
72110;BME280;59983;52.010;5.420;2023-04-26T02:10:55;101976.13;;;3.07;88.10
72110;BME280;59983;52.010;5.420;2023-04-26T02:13:21;101979.34;;;3.04;88.01
72110;BME280;59983;52.010;5.420;2023-04-26T02:15:49;101976.66;;;3.04;88.00
72110;BME280;59983;52.010;5.420;2023-04-26T02:18:16;101972.91;;;3.05;87.85
72110;BME280;59983;52.010;5.420;2023-04-26T02:20:47;101979.34;;;3.04;87.60
72110;BME280;59983;52.010;5.420;2023-04-26T02:23:13;101974.75;;;2.99;88.18
72110;BME280;59983;52.010;5.420;2023-04-26T02:25:40;101971.53;;;2.97;88.48
72110;BME280;59983;52.010;5.420;2023-04-26T02:28:07;101973.41;;;2.97;88.01
72110;BME280;59983;52.010;5.420;2023-04-26T02:30:34;101976.63;;;2.99;88.66
72110;BME280;59983;52.010;5.420;2023-04-26T02:33:00;101977.97;;;2.96;88.21
72110;BME280;59983;52.010;5.420;2023-04-26T02:35:27;101986.03;;;2.96;89.08
72110;BME280;59983;52.010;5.420;2023-04-26T02:37:54;101991.66;;;2.95;88.32
72110;BME280;59983;52.010;5.420;2023-04-26T02:40:20;101986.25;;;2.90;88.39
72110;BME280;59983;52.010;5.420;2023-04-26T02:42:47;101981.72;;;2.90;88.76
72110;BME280;59983;52.010;5.420;2023-04-26T02:45:13;101982.81;;;2.94;88.25
72110;BME280;59983;52.010;5.420;2023-04-26T02:47:40;101982.00;;;2.94;88.15
72110;BME280;59983;52.010;5.420;2023-04-26T02:50:07;101982.00;;;2.94;88.11
72110;BME280;59983;52.010;5.420;2023-04-26T02:52:37;101983.31;;;2.91;88.46
72110;BME280;59983;52.010;5.420;2023-04-26T02:55:04;101976.34;;;2.85;88.58
72110;BME280;59983;52.010;5.420;2023-04-26T02:57:31;101978.75;;;2.81;88.79
72110;BME280;59983;52.010;5.420;2023-04-26T02:59:58;101975.81;;;2.83;88.60
72110;BME280;59983;52.010;5.420;2023-04-26T03:02:25;101977.66;;;2.82;88.82
72110;BME280;59983;52.010;5.420;2023-04-26T03:04:51;101968.03;;;2.81;88.63
72110;BME280;59983;52.010;5.420;2023-04-26T03:07:18;101968.03;;;2.81;88.41
72110;BME280;59983;52.010;5.420;2023-04-26T03:09:45;101967.22;;;2.76;88.18
72110;BME280;59983;52.010;5.420;2023-04-26T03:12:11;101970.97;;;2.75;88.38
72110;BME280;59983;52.010;5.420;2023-04-26T03:14:38;101973.63;;;2.70;88.64
72110;BME280;59983;52.010;5.420;2023-04-26T03:17:05;101970.97;;;2.75;88.36
72110;BME280;59983;52.010;5.420;2023-04-26T03:19:31;101972.28;;;2.72;88.16
72110;BME280;59983;52.010;5.420;2023-04-26T03:21:58;101964.81;;;2.74;88.61
72110;BME280;59983;52.010;5.420;2023-04-26T03:24:24;101969.63;;;2.82;88.45
72110;BME280;59983;52.010;5.420;2023-04-26T03:26:51;101969.13;;;2.86;88.30
72110;BME280;59983;52.010;5.420;2023-04-26T03:29:17;101961.88;;;2.86;88.34
72110;BME280;59983;52.010;5.420;2023-04-26T03:31:44;101957.59;;;2.90;88.06
72110;BME280;59983;52.010;5.420;2023-04-26T03:34:11;101962.16;;;2.90;88.07
72110;BME280;59983;52.010;5.420;2023-04-26T03:36:37;101963.75;;;2.91;87.73
72110;BME280;59983;52.010;5.420;2023-04-26T03:39:04;101958.41;;;2.86;88.35
72110;BME280;59983;52.010;5.420;2023-04-26T03:41:33;101949.03;;;2.88;87.96
72110;BME280;59983;52.010;5.420;2023-04-26T03:44:02;101964.03;;;2.84;88.34
72110;BME280;59983;52.010;5.420;2023-04-26T03:46:28;101955.72;;;2.86;88.15
72110;BME280;59983;52.010;5.420;2023-04-26T03:48:55;101964.03;;;2.84;88.05
72110;BME280;59983;52.010;5.420;2023-04-26T03:51:21;101961.88;;;2.81;88.63
72110;BME280;59983;52.010;5.420;2023-04-26T03:53:48;101962.91;;;2.70;88.17
72110;BME280;59983;52.010;5.420;2023-04-26T03:56:14;101956.19;;;2.62;88.44
72110;BME280;59983;52.010;5.420;2023-04-26T03:58:41;101960.47;;;2.58;88.83
72110;BME280;59983;52.010;5.420;2023-04-26T04:01:08;101962.06;;;2.54;89.34
72110;BME280;59983;52.010;5.420;2023-04-26T04:03:35;101963.94;;;2.53;89.53
72110;BME280;59983;52.010;5.420;2023-04-26T04:06:05;101960.75;;;2.57;89.10
72110;BME280;59983;52.010;5.420;2023-04-26T04:08:31;101962.09;;;2.59;89.34
72110;BME280;59983;52.010;5.420;2023-04-26T04:10:59;101958.88;;;2.62;88.91
72110;BME280;59983;52.010;5.420;2023-04-26T04:13:26;101954.84;;;2.60;89.10
72110;BME280;59983;52.010;5.420;2023-04-26T04:15:53;101962.09;;;2.64;88.71
72110;BME280;59983;52.010;5.420;2023-04-26T04:18:20;101950.84;;;2.57;88.63
72110;BME280;59983;52.010;5.420;2023-04-26T04:20:46;101955.63;;;2.55;88.70
72110;BME280;59983;52.010;5.420;2023-04-26T04:23:12;101951.66;;;2.58;88.98
72110;BME280;59983;52.010;5.420;2023-04-26T04:25:39;101952.44;;;2.58;89.52
72110;BME280;59983;52.010;5.420;2023-04-26T04:28:06;101961.56;;;2.57;89.71
72110;BME280;59983;52.010;5.420;2023-04-26T04:30:33;101961.28;;;2.59;89.68
72110;BME280;59983;52.010;5.420;2023-04-26T04:33:00;101952.69;;;2.51;90.08
72110;BME280;59983;52.010;5.420;2023-04-26T04:35:30;101958.59;;;2.53;90.21
72110;BME280;59983;52.010;5.420;2023-04-26T04:37:59;101972.00;;;2.59;90.16
72110;BME280;59983;52.010;5.420;2023-04-26T04:40:26;101959.41;;;2.59;90.13
72110;BME280;59983;52.010;5.420;2023-04-26T04:42:53;101965.03;;;2.58;90.06
72110;BME280;59983;52.010;5.420;2023-04-26T04:45:20;101962.59;;;2.56;90.02
72110;BME280;59983;52.010;5.420;2023-04-26T04:47:46;101957.81;;;2.58;90.28
72110;BME280;59983;52.010;5.420;2023-04-26T04:50:13;101962.63;;;2.61;90.74
72110;BME280;59983;52.010;5.420;2023-04-26T04:52:40;101970.16;;;2.79;90.57
72110;BME280;59983;52.010;5.420;2023-04-26T04:55:07;101966.69;;;2.89;90.42
72110;BME280;59983;52.010;5.420;2023-04-26T04:57:34;101972.88;;;2.95;89.83
72110;BME280;59983;52.010;5.420;2023-04-26T05:00:01;101971.28;;;2.94;89.84
72110;BME280;59983;52.010;5.420;2023-04-26T05:02:35;101971.81;;;2.96;90.08
72110;BME280;59983;52.010;5.420;2023-04-26T05:05:03;101976.09;;;2.97;89.78
72110;BME280;59983;52.010;5.420;2023-04-26T05:07:31;101969.16;;;3.01;90.20
72110;BME280;59983;52.010;5.420;2023-04-26T05:09:58;101974.50;;;3.16;89.83
72110;BME280;59983;52.010;5.420;2023-04-26T05:12:25;101976.38;;;3.16;89.75
72110;BME280;59983;52.010;5.420;2023-04-26T05:14:52;101971.03;;;3.16;90.10
72110;BME280;59983;52.010;5.420;2023-04-26T05:17:18;101979.38;;;3.19;90.36
72110;BME280;59983;52.010;5.420;2023-04-26T05:19:45;101979.34;;;3.24;90.20
72110;BME280;59983;52.010;5.420;2023-04-26T05:22:12;101980.69;;;3.22;90.11
72110;BME280;59983;52.010;5.420;2023-04-26T05:24:45;101980.97;;;3.30;90.29
72110;BME280;59983;52.010;5.420;2023-04-26T05:27:12;101988.75;;;3.37;89.98
72110;BME280;59983;52.010;5.420;2023-04-26T05:29:39;101981.22;;;3.34;90.09
72110;BME280;59983;52.010;5.420;2023-04-26T05:32:07;101982.84;;;3.40;90.90
72110;BME280;59983;52.010;5.420;2023-04-26T05:34:34;101991.72;;;3.46;91.07
72110;BME280;59983;52.010;5.420;2023-04-26T05:37:00;101994.66;;;3.49;91.38
72110;BME280;59983;52.010;5.420;2023-04-26T05:39:27;101981.78;;;3.46;91.13
72110;BME280;59983;52.010;5.420;2023-04-26T05:41:53;101988.19;;;3.60;91.60
72110;BME280;59983;52.010;5.420;2023-04-26T05:44:20;101992.50;;;3.66;91.11
72110;BME280;59983;52.010;5.420;2023-04-26T05:46:46;101994.09;;;3.78;91.76
72110;BME280;59983;52.010;5.420;2023-04-26T05:49:13;101997.81;;;3.87;92.03
72110;BME280;59983;52.010;5.420;2023-04-26T05:51:39;102000.75;;;3.95;92.04
72110;BME280;59983;52.010;5.420;2023-04-26T05:54:06;102000.47;;;4.17;91.72
72110;BME280;59983;52.010;5.420;2023-04-26T05:56:33;101999.63;;;4.27;91.91
72110;BME280;59983;52.010;5.420;2023-04-26T05:58:59;101996.88;;;4.42;92.23
72110;BME280;59983;52.010;5.420;2023-04-26T06:01:26;102003.25;;;4.57;92.25
72110;BME280;59983;52.010;5.420;2023-04-26T06:03:53;101998.06;;;4.75;92.26
72110;BME280;59983;52.010;5.420;2023-04-26T06:06:25;102000.38;;;4.92;92.44
72110;BME280;59983;52.010;5.420;2023-04-26T06:08:53;102004.63;;;5.03;91.80
72110;BME280;59983;52.010;5.420;2023-04-26T06:11:20;102004.25;;;5.20;92.05
72110;BME280;59983;52.010;5.420;2023-04-26T06:13:47;101998.53;;;5.32;91.39
72110;BME280;59983;52.010;5.420;2023-04-26T06:16:14;101996.31;;;5.39;90.82
72110;BME280;59983;52.010;5.420;2023-04-26T06:18:41;102000.28;;;5.47;90.68
72110;BME280;59983;52.010;5.420;2023-04-26T06:21:08;101997.03;;;5.50;90.17
72110;BME280;59983;52.010;5.420;2023-04-26T06:23:34;102004.53;;;5.53;89.92
72110;BME280;59983;52.010;5.420;2023-04-26T06:26:01;101999.63;;;5.60;90.36
72110;BME280;59983;52.010;5.420;2023-04-26T06:28:27;102009.00;;;5.67;90.30
72110;BME280;59983;52.010;5.420;2023-04-26T06:30:54;102006.16;;;5.83;90.34
72110;BME280;59983;52.010;5.420;2023-04-26T06:33:20;102014.63;;;6.00;89.59
72110;BME280;59983;52.010;5.420;2023-04-26T06:35:47;102018.84;;;6.11;89.28
72110;BME280;59983;52.010;5.420;2023-04-26T06:38:13;102021.94;;;6.23;88.88
72110;BME280;59983;52.010;5.420;2023-04-26T06:40:40;102013.69;;;6.39;88.89
72110;BME280;59983;52.010;5.420;2023-04-26T06:43:06;102024.34;;;6.49;89.06
72110;BME280;59983;52.010;5.420;2023-04-26T06:45:33;102014.94;;;6.46;89.07
72110;BME280;59983;52.010;5.420;2023-04-26T06:48:00;102019.97;;;6.53;88.13
72110;BME280;59983;52.010;5.420;2023-04-26T06:50:27;102021.69;;;6.44;88.87
72110;BME280;59983;52.010;5.420;2023-04-26T06:52:53;102026.44;;;6.52;89.33
72110;BME280;59983;52.010;5.420;2023-04-26T06:55:20;102026.91;;;6.59;89.10
72110;BME280;59983;52.010;5.420;2023-04-26T06:57:48;102023.63;;;6.62;88.80
72110;BME280;59983;52.010;5.420;2023-04-26T07:00:15;102027.53;;;6.75;87.89
72110;BME280;59983;52.010;5.420;2023-04-26T07:02:41;102023.94;;;6.79;89.46
72110;BME280;59983;52.010;5.420;2023-04-26T07:05:08;102023.28;;;6.88;87.85
72110;BME280;59983;52.010;5.420;2023-04-26T07:07:35;102022.50;;;6.87;87.69
72110;BME280;59983;52.010;5.420;2023-04-26T07:10:02;102017.91;;;6.88;86.79
72110;BME280;59983;52.010;5.420;2023-04-26T07:12:29;102016.53;;;7.09;86.47
72110;BME280;59983;52.010;5.420;2023-04-26T07:14:56;102018.78;;;7.21;85.28
72110;BME280;59983;52.010;5.420;2023-04-26T07:17:23;102007.25;;;7.34;85.06
72110;BME280;59983;52.010;5.420;2023-04-26T07:19:49;102016.06;;;7.39;84.12
72110;BME280;59983;52.010;5.420;2023-04-26T07:22:16;102020.16;;;7.37;83.94
72110;BME280;59983;52.010;5.420;2023-04-26T07:24:42;102011.03;;;7.52;84.25
72110;BME280;59983;52.010;5.420;2023-04-26T07:27:09;102010.06;;;7.61;83.66
72110;BME280;59983;52.010;5.420;2023-04-26T07:29:37;102013.06;;;7.74;83.43
72110;BME280;59983;52.010;5.420;2023-04-26T07:32:04;102006.78;;;7.78;83.65
72110;BME280;59983;52.010;5.420;2023-04-26T07:34:31;102002.81;;;7.89;83.91
72110;BME280;59983;52.010;5.420;2023-04-26T07:36:57;102009.19;;;7.93;81.06
72110;BME280;59983;52.010;5.420;2023-04-26T07:39:24;102008.59;;;7.83;80.60
72110;BME280;59983;52.010;5.420;2023-04-26T07:41:50;102014.09;;;7.78;79.93
72110;BME280;59983;52.010;5.420;2023-04-26T07:44:17;102012.81;;;7.89;80.41
72110;BME280;59983;52.010;5.420;2023-04-26T07:46:43;102019.13;;;7.98;79.40
72110;BME280;59983;52.010;5.420;2023-04-26T07:49:10;102008.09;;;7.94;77.58
72110;BME280;59983;52.010;5.420;2023-04-26T07:51:36;102015.03;;;7.87;79.12
72110;BME280;59983;52.010;5.420;2023-04-26T07:54:03;102016.19;;;7.81;79.52
72110;BME280;59983;52.010;5.420;2023-04-26T07:56:29;102015.41;;;7.80;78.24
72110;BME280;59983;52.010;5.420;2023-04-26T07:58:56;102015.59;;;7.84;78.33
72110;BME280;59983;52.010;5.420;2023-04-26T08:01:22;102020.81;;;7.94;78.17
72110;BME280;59983;52.010;5.420;2023-04-26T08:03:49;102025.44;;;8.07;75.86
72110;BME280;59983;52.010;5.420;2023-04-26T08:06:16;102033.25;;;8.09;75.47
72110;BME280;59983;52.010;5.420;2023-04-26T08:08:43;102030.97;;;8.16;75.35
72110;BME280;59983;52.010;5.420;2023-04-26T08:11:16;102026.78;;;8.23;74.44
72110;BME280;59983;52.010;5.420;2023-04-26T08:13:42;102027.09;;;8.36;74.18
72110;BME280;59983;52.010;5.420;2023-04-26T08:16:09;102028.69;;;8.37;73.00
72110;BME280;59983;52.010;5.420;2023-04-26T08:18:36;102033.72;;;8.43;73.64
72110;BME280;59983;52.010;5.420;2023-04-26T08:21:02;102035.59;;;8.57;74.04
72110;BME280;59983;52.010;5.420;2023-04-26T08:23:33;102023.25;;;8.78;74.73
72110;BME280;59983;52.010;5.420;2023-04-26T08:26:02;102032.75;;;8.89;73.52
72110;BME280;59983;52.010;5.420;2023-04-26T08:28:28;102029.88;;;8.86;74.98
72110;BME280;59983;52.010;5.420;2023-04-26T08:30:55;102023.34;;;8.87;71.27
72110;BME280;59983;52.010;5.420;2023-04-26T08:33:22;102027.16;;;8.86;72.38
72110;BME280;59983;52.010;5.420;2023-04-26T08:35:48;102026.84;;;8.87;71.77
72110;BME280;59983;52.010;5.420;2023-04-26T08:38:15;102026.94;;;8.96;72.13
72110;BME280;59983;52.010;5.420;2023-04-26T08:40:42;102021.09;;;9.02;73.04
72110;BME280;59983;52.010;5.420;2023-04-26T08:43:13;102023.72;;;8.94;70.05
72110;BME280;59983;52.010;5.420;2023-04-26T08:45:43;102022.53;;;8.86;69.58
72110;BME280;59983;52.010;5.420;2023-04-26T08:48:11;102025.25;;;8.86;69.16
72110;BME280;59983;52.010;5.420;2023-04-26T08:50:43;102024.22;;;8.96;69.59
72110;BME280;59983;52.010;5.420;2023-04-26T08:53:15;102027.41;;;8.98;67.76
72110;BME280;59983;52.010;5.420;2023-04-26T08:55:49;102022.63;;;8.95;66.11
72110;BME280;59983;52.010;5.420;2023-04-26T08:58:16;102019.50;;;9.01;66.80
72110;BME280;59983;52.010;5.420;2023-04-26T09:00:43;102021.22;;;8.97;66.04
72110;BME280;59983;52.010;5.420;2023-04-26T09:03:13;102011.00;;;8.94;66.26
72110;BME280;59983;52.010;5.420;2023-04-26T09:05:40;102011.19;;;8.98;66.20
72110;BME280;59983;52.010;5.420;2023-04-26T09:08:15;102014.09;;;9.01;66.45
72110;BME280;59983;52.010;5.420;2023-04-26T09:10:42;102019.72;;;8.91;65.72
72110;BME280;59983;52.010;5.420;2023-04-26T09:13:09;102013.16;;;8.70;65.85
72110;BME280;59983;52.010;5.420;2023-04-26T09:15:36;102005.03;;;8.70;67.65
72110;BME280;59983;52.010;5.420;2023-04-26T09:18:17;102007.34;;;8.76;67.31
72110;BME280;59983;52.010;5.420;2023-04-26T09:20:44;102007.81;;;8.78;66.45
72110;BME280;59983;52.010;5.420;2023-04-26T09:23:11;102015.84;;;8.70;66.02
72110;BME280;59983;52.010;5.420;2023-04-26T09:25:37;102008.75;;;8.60;65.90
72110;BME280;59983;52.010;5.420;2023-04-26T09:28:21;102012.44;;;8.64;66.16
72110;BME280;59983;52.010;5.420;2023-04-26T09:30:48;102018.47;;;8.75;65.99
72110;BME280;59983;52.010;5.420;2023-04-26T09:33:14;102011.16;;;8.75;65.70
72110;BME280;59983;52.010;5.420;2023-04-26T09:35:42;102019.94;;;8.81;64.77
72110;BME280;59983;52.010;5.420;2023-04-26T09:38:13;102019.34;;;8.84;64.16
72110;BME280;59983;52.010;5.420;2023-04-26T09:40:45;102026.47;;;8.80;64.39
72110;BME280;59983;52.010;5.420;2023-04-26T09:43:16;102027.56;;;8.79;64.80
72110;BME280;59983;52.010;5.420;2023-04-26T09:45:47;102020.34;;;8.88;65.41
72110;BME280;59983;52.010;5.420;2023-04-26T09:48:20;102032.75;;;8.89;65.84
72110;BME280;59983;52.010;5.420;2023-04-26T09:50:49;102031.84;;;8.94;66.97
72110;BME280;59983;52.010;5.420;2023-04-26T09:53:28;102030.44;;;8.96;65.49
72110;BME280;59983;52.010;5.420;2023-04-26T09:55:55;102031.66;;;8.90;65.04
72110;BME280;59983;52.010;5.420;2023-04-26T09:58:22;102024.75;;;8.84;64.69
72110;BME280;59983;52.010;5.420;2023-04-26T10:00:50;102031.53;;;8.95;64.66
72110;BME280;59983;52.010;5.420;2023-04-26T10:03:18;102031.22;;;8.97;65.65
72110;BME280;59983;52.010;5.420;2023-04-26T10:05:46;102022.06;;;8.84;64.54
72110;BME280;59983;52.010;5.420;2023-04-26T10:08:13;102023.13;;;8.83;66.30
72110;BME280;59983;52.010;5.420;2023-04-26T10:10:41;102028.97;;;8.76;65.11
72110;BME280;59983;52.010;5.420;2023-04-26T10:13:10;102019.13;;;8.80;64.32
72110;BME280;59983;52.010;5.420;2023-04-26T10:15:38;102016.94;;;8.83;64.57
72110;BME280;59983;52.010;5.420;2023-04-26T10:18:05;102015.22;;;8.87;63.47
72110;BME280;59983;52.010;5.420;2023-04-26T10:20:32;102021.53;;;8.96;64.16
72110;BME280;59983;52.010;5.420;2023-04-26T10:23:02;102017.97;;;9.09;64.02
72110;BME280;59983;52.010;5.420;2023-04-26T10:25:37;102026.34;;;9.21;62.95
72110;BME280;59983;52.010;5.420;2023-04-26T10:28:04;102026.34;;;9.21;63.76
72110;BME280;59983;52.010;5.420;2023-04-26T10:30:31;102020.06;;;9.34;62.80
72110;BME280;59983;52.010;5.420;2023-04-26T10:35:25;102016.94;;;9.41;59.46
72110;BME280;59983;52.010;5.420;2023-04-26T10:40:33;102019.50;;;9.91;59.88
72110;BME280;59983;52.010;5.420;2023-04-26T10:45:43;102012.44;;;10.21;57.57
72110;BME280;59983;52.010;5.420;2023-04-26T10:53:24;102016.41;;;10.46;56.94
72110;BME280;59983;52.010;5.420;2023-04-26T10:55:51;102012.63;;;10.25;56.37
72110;BME280;59983;52.010;5.420;2023-04-26T10:58:28;102011.63;;;10.12;56.67
72110;BME280;59983;52.010;5.420;2023-04-26T11:01:08;102006.91;;;9.95;58.21
72110;BME280;59983;52.010;5.420;2023-04-26T11:03:43;102004.03;;;9.91;58.18
72110;BME280;59983;52.010;5.420;2023-04-26T11:06:46;102002.44;;;9.90;58.87
72110;BME280;59983;52.010;5.420;2023-04-26T11:09:47;102010.31;;;9.78;59.09
72110;BME280;59983;52.010;5.420;2023-04-26T11:12:15;102007.09;;;9.68;61.64
72110;BME280;59983;52.010;5.420;2023-04-26T11:14:42;102009.44;;;9.38;62.27
72110;BME280;59983;52.010;5.420;2023-04-26T11:17:09;102002.09;;;9.16;62.84
72110;BME280;59983;52.010;5.420;2023-04-26T11:19:36;101998.09;;;9.14;64.23
72110;BME280;59983;52.010;5.420;2023-04-26T11:22:05;101995.56;;;9.17;64.20
72110;BME280;59983;52.010;5.420;2023-04-26T11:24:33;101995.09;;;9.15;64.07
72110;BME280;59983;52.010;5.420;2023-04-26T11:27:08;101994.13;;;9.11;64.63
72110;BME280;59983;52.010;5.420;2023-04-26T11:29:35;101990.00;;;9.14;65.13
72110;BME280;59983;52.010;5.420;2023-04-26T11:32:02;101989.69;;;9.15;64.70
72110;BME280;59983;52.010;5.420;2023-04-26T11:34:33;101988.88;;;9.15;65.77
72110;BME280;59983;52.010;5.420;2023-04-26T11:37:04;101993.44;;;9.28;65.50
72110;BME280;59983;52.010;5.420;2023-04-26T11:39:32;101991.03;;;9.26;64.02
72110;BME280;59983;52.010;5.420;2023-04-26T11:42:11;101987.59;;;9.34;63.17
72110;BME280;59983;52.010;5.420;2023-04-26T11:44:38;101990.44;;;9.29;63.00
72110;BME280;59983;52.010;5.420;2023-04-26T11:47:06;101988.91;;;9.37;63.80
72110;BME280;59983;52.010;5.420;2023-04-26T11:49:35;101990.56;;;9.47;63.11
72110;BME280;59983;52.010;5.420;2023-04-26T11:52:03;101990.56;;;9.47;62.76
72110;BME280;59983;52.010;5.420;2023-04-26T11:54:32;101992.81;;;9.53;62.99
72110;BME280;59983;52.010;5.420;2023-04-26T11:56:59;102002.41;;;9.59;63.04
72110;BME280;59983;52.010;5.420;2023-04-26T11:59:28;102004.00;;;9.60;62.62
72110;BME280;59983;52.010;5.420;2023-04-26T12:01:56;102000.50;;;9.60;61.53
72110;BME280;59983;52.010;5.420;2023-04-26T12:04:29;101994.03;;;9.70;62.90
72110;BME280;59983;52.010;5.420;2023-04-26T12:06:57;101995.66;;;9.79;61.27
72110;BME280;59983;52.010;5.420;2023-04-26T12:09:26;102001.28;;;9.83;60.69
72110;BME280;59983;52.010;5.420;2023-04-26T12:14:38;101998.88;;;9.81;61.38
72110;BME280;59983;52.010;5.420;2023-04-26T12:17:05;101998.09;;;9.81;61.00
72110;BME280;59983;52.010;5.420;2023-04-26T12:19:36;102007.66;;;9.87;61.24
72110;BME280;59983;52.010;5.420;2023-04-26T12:22:04;102002.44;;;9.90;60.34
72110;BME280;59983;52.010;5.420;2023-04-26T12:24:32;101999.78;;;9.99;60.78
72110;BME280;59983;52.010;5.420;2023-04-26T12:27:05;102001.09;;;10.10;59.44
72110;BME280;59983;52.010;5.420;2023-04-26T12:29:34;101993.47;;;10.21;59.52
72110;BME280;59983;52.010;5.420;2023-04-26T12:32:01;101994.66;;;10.37;58.94
72110;BME280;59983;52.010;5.420;2023-04-26T12:34:29;102000.28;;;10.49;57.94
72110;BME280;59983;52.010;5.420;2023-04-26T12:36:56;102001.88;;;10.59;57.60
72110;BME280;59983;52.010;5.420;2023-04-26T12:39:22;102008.41;;;10.49;56.94
72110;BME280;59983;52.010;5.420;2023-04-26T12:41:49;102005.53;;;10.46;56.54
72110;BME280;59983;52.010;5.420;2023-04-26T12:44:15;102003.66;;;10.64;57.81
72110;BME280;59983;52.010;5.420;2023-04-26T12:46:44;101997.47;;;10.81;57.33
72110;BME280;59983;52.010;5.420;2023-04-26T12:49:11;101996.69;;;11.06;58.36
72110;BME280;59983;52.010;5.420;2023-04-26T12:51:38;101986.59;;;11.50;55.16
72110;BME280;59983;52.010;5.420;2023-04-26T12:54:04;101984.78;;;11.80;57.92
72110;BME280;59983;52.010;5.420;2023-04-26T12:56:32;101987.75;;;12.63;56.28
72110;BME280;59983;52.010;5.420;2023-04-26T12:58:59;101974.19;;;13.17;54.79
72110;BME280;59983;52.010;5.420;2023-04-26T13:01:25;101977.63;;;13.05;53.35
72110;BME280;59983;52.010;5.420;2023-04-26T13:03:52;101976.56;;;12.98;52.20
72110;BME280;59983;52.010;5.420;2023-04-26T13:06:21;101973.47;;;12.66;52.89
72110;BME280;59983;52.010;5.420;2023-04-26T13:08:47;101972.31;;;12.46;53.59
72110;BME280;59983;52.010;5.420;2023-04-26T13:11:14;101986.53;;;12.23;53.00
72110;BME280;59983;52.010;5.420;2023-04-26T13:13:41;101979.28;;;11.97;51.81
72110;BME280;59983;52.010;5.420;2023-04-26T13:16:10;101979.31;;;11.88;50.92
72110;BME280;59983;52.010;5.420;2023-04-26T13:18:39;101978.63;;;11.91;53.19